Time;durP1;ratioP1;P1;durP2;ratioP2;P2;SDS_P1;SDS_P2;PMS_P1;PMS_P2;Temp;Humidity;BMP_temperature;BMP_pressure;BME280_temperature;BME280_humidity;BME280_pressure;Samples;Min_cycle;Max_cycle;Signal;HPM_P1;HPM_P2
2023/05/13 00:02:43;;;;;;;33.30;25.57;;;10.30;99.90;;;;;;2606881;54;20134;-69
2023/05/13 00:08:31;;;;;;;30.97;25.10;;;10.20;99.90;;;;;;2610371;39;20638;-69
2023/05/13 00:14:18;;;;;;;31.90;25.73;;;10.20;99.90;;;;;;2609123;54;20163;-69
2023/05/13 00:20:07;;;;;;;34.47;25.57;;;10.10;99.90;;;;;;2606131;54;20166;-69
2023/05/13 00:30:00;;;;;;;32.97;25.47;;;10.00;99.90;;;;;;2606453;54;20429;-69
2023/05/13 00:35:47;;;;;;;27.63;24.70;;;10.10;99.90;;;;;;2608333;54;20486;-69
2023/05/13 00:41:35;;;;;;;37.00;28.30;;;10.00;99.90;;;;;;2610539;39;20366;-69
2023/05/13 00:47:23;;;;;;;33.03;25.60;;;10.00;99.90;;;;;;2607682;54;20798;-69
2023/05/13 00:53:12;;;;;;;30.93;24.90;;;9.90;99.90;;;;;;2607367;54;20162;-68
2023/05/13 00:58:59;;;;;;;32.60;25.77;;;9.90;99.90;;;;;;2608255;54;20398;-69
2023/05/13 01:11:27;;;;;;;34.00;26.80;;;9.70;99.90;;;;;;2611076;54;20785;-76
2023/05/13 01:23:36;;;;;;;31.17;24.50;;;9.70;99.90;;;;;;2614338;54;20367;-76
2023/05/13 01:29:24;;;;;;;28.87;24.40;;;9.50;99.90;;;;;;2612183;39;20676;-75
2023/05/13 01:35:13;;;;;;;35.60;25.87;;;9.40;99.90;;;;;;2613170;46;20169;-76
2023/05/13 01:41:01;;;;;;;31.70;25.53;;;9.30;99.90;;;;;;2613174;54;20382;-77
2023/05/13 01:46:49;;;;;;;30.37;24.70;;;9.30;99.90;;;;;;2611124;54;20360;-75
2023/05/13 01:52:36;;;;;;;34.90;24.77;;;9.20;99.90;;;;;;2610815;54;20158;-74
2023/05/13 01:58:24;;;;;;;34.13;24.03;;;9.10;99.90;;;;;;2611144;54;20699;-74
2023/05/13 02:04:12;;;;;;;28.50;25.30;;;9.10;99.90;;;;;;2612637;54;20174;-75
2023/05/13 02:10:00;;;;;;;35.03;25.07;;;9.40;99.90;;;;;;2614296;39;20660;-75
2023/05/13 02:15:47;;;;;;;46.97;29.17;;;9.40;99.90;;;;;;2611897;54;20648;-74
2023/05/13 02:21:35;;;;;;;37.47;28.03;;;9.20;99.90;;;;;;2614318;39;20689;-74
2023/05/13 02:30:45;;;;;;;38.90;27.20;;;8.80;99.90;;;;;;2611925;54;20434;-69
2023/05/13 02:36:32;;;;;;;33.00;26.00;;;8.80;99.90;;;;;;2611311;54;20668;-67
2023/05/13 02:42:20;;;;;;;29.07;24.87;;;8.70;99.90;;;;;;2611753;54;20123;-68
2023/05/13 02:48:09;;;;;;;37.87;26.80;;;8.70;99.90;;;;;;2613828;54;20138;-68
2023/05/13 02:53:57;;;;;;;31.30;25.30;;;8.60;99.90;;;;;;2614253;54;20963;-68
2023/05/13 02:57:00;;;;;;;31.33;24.77;;;8.60;99.90;;;;;;2612067;47;20829;-67
2023/05/13 02:59:26;;;;;;;32.20;24.37;;;8.50;99.90;;;;;;2614337;54;20162;-68
2023/05/13 03:05:14;;;;;;;28.40;23.07;;;8.40;99.90;;;;;;2613160;54;20249;-67
2023/05/13 03:11:02;;;;;;;31.33;24.57;;;8.50;99.90;;;;;;2613602;39;20546;-67
2023/05/13 03:16:50;;;;;;;30.87;25.00;;;8.40;99.90;;;;;;2613293;39;20762;-68
2023/05/13 03:22:37;;;;;;;27.70;24.80;;;8.20;99.90;;;;;;2611756;54;20672;-67
2023/05/13 03:28:25;;;;;;;31.90;26.40;;;8.20;99.90;;;;;;2612107;46;20205;-67
2023/05/13 03:34:13;;;;;;;31.40;24.30;;;8.10;99.90;;;;;;2610775;54;20138;-67
2023/05/13 03:40:00;;;;;;;32.57;25.80;;;8.20;99.90;;;;;;2613414;54;20254;-68
2023/05/13 03:45:49;;;;;;;37.83;27.57;;;8.10;99.90;;;;;;2612588;54;20751;-67
2023/05/13 03:51:37;;;;;;;31.87;25.23;;;8.00;99.90;;;;;;2611599;54;20363;-67
2023/05/13 03:57:25;;;;;;;30.97;26.07;;;8.10;99.90;;;;;;2613742;39;20639;-67
2023/05/13 04:03:17;;;;;;;30.63;25.40;;;8.10;99.90;;;;;;2614372;54;20250;-66
2023/05/13 04:09:05;;;;;;;33.83;27.40;;;8.10;99.90;;;;;;2614553;54;20519;-67
2023/05/13 04:14:53;;;;;;;35.63;26.67;;;8.30;99.90;;;;;;2611318;54;20174;-67
2023/05/13 04:20:41;;;;;;;35.07;25.67;;;8.20;99.90;;;;;;2613642;31;20618;-67
2023/05/13 04:36:54;;;;;;;35.17;24.10;;;8.40;99.90;;;;;;2612203;54;20362;-68
2023/05/13 04:42:41;;;;;;;28.23;24.63;;;8.50;99.90;;;;;;2610882;54;20141;-67
2023/05/13 04:48:28;;;;;;;36.30;27.57;;;9.00;99.90;;;;;;2611151;54;20195;-67
2023/05/13 04:54:15;;;;;;;32.63;26.03;;;9.30;99.90;;;;;;2611618;54;20129;-67
2023/05/13 05:00:04;;;;;;;29.50;23.00;;;9.60;99.90;;;;;;2611616;54;20138;-67
2023/05/13 05:05:51;;;;;;;28.13;23.87;;;9.90;99.90;;;;;;2613263;54;20406;-67
2023/05/13 05:11:39;;;;;;;30.47;26.00;;;10.30;99.90;;;;;;2611754;54;20134;-67
2023/05/13 05:17:31;;;;;;;28.27;25.07;;;10.80;99.90;;;;;;2609955;39;20566;-67
2023/05/13 05:23:19;;;;;;;28.70;22.57;;;11.30;99.90;;;;;;2610313;54;20419;-71
2023/05/13 05:26:17;;;;;;;29.10;24.63;;;11.50;99.90;;;;;;2608928;54;20411;-68
2023/05/13 05:28:44;;;;;;;29.93;26.73;;;11.80;99.90;;;;;;2610139;39;20835;-68
2023/05/13 05:34:32;;;;;;;27.20;24.33;;;12.40;99.90;;;;;;2611292;54;20419;-67
2023/05/13 05:40:20;;;;;;;27.53;24.70;;;13.30;99.90;;;;;;2610678;54;20130;-66
2023/05/13 05:46:09;;;;;;;31.13;27.10;;;13.90;99.90;;;;;;2611084;54;20659;-67
2023/05/13 05:51:56;;;;;;;27.00;24.30;;;14.40;99.90;;;;;;2613220;54;21119;-67
2023/05/13 05:57:44;;;;;;;25.57;23.07;;;14.50;99.90;;;;;;2613483;54;20131;-66
2023/05/13 06:03:32;;;;;;;24.30;22.13;;;14.20;99.90;;;;;;2613852;54;20818;-68
2023/05/13 06:09:20;;;;;;;24.00;21.80;;;14.00;99.90;;;;;;2613785;54;20125;-68
2023/05/13 06:15:11;;;;;;;22.57;20.50;;;15.10;99.90;;;;;;2611810;54;20182;-68
2023/05/13 06:20:58;;;;;;;22.43;20.13;;;13.90;99.90;;;;;;2614131;39;20731;-68
2023/05/13 06:37:12;;;;;;;20.70;19.00;;;16.30;99.90;;;;;;2611572;54;20400;-68
2023/05/13 06:42:59;;;;;;;20.33;18.57;;;16.50;99.90;;;;;;2610730;54;20434;-68
2023/05/13 06:48:46;;;;;;;21.43;19.60;;;15.50;99.90;;;;;;2610318;54;20130;-67
2023/05/13 06:54:33;;;;;;;19.43;17.73;;;16.00;99.90;;;;;;2604954;31;20835;-68
2023/05/13 07:00:20;;;;;;;18.50;16.63;;;16.20;99.90;;;;;;2607772;54;20138;-68
2023/05/13 07:06:08;;;;;;;17.97;16.67;;;16.30;99.90;;;;;;2613992;54;20154;-68
2023/05/13 07:11:56;;;;;;;19.03;17.40;;;15.90;99.90;;;;;;2613413;54;20426;-67
2023/05/13 07:17:44;;;;;;;18.50;16.97;;;15.80;99.90;;;;;;2606400;54;20285;-68
2023/05/13 07:23:32;;;;;;;18.30;16.77;;;16.10;99.90;;;;;;2611160;54;20182;-67
2023/05/13 07:26:17;;;;;;;18.40;16.87;;;17.20;99.90;;;;;;2609446;54;20407;-68
2023/05/13 07:28:43;;;;;;;17.50;16.00;;;18.00;99.90;;;;;;2611476;39;20686;-68
2023/05/13 07:34:31;;;;;;;15.73;14.60;;;18.70;99.90;;;;;;2610915;54;20134;-67
2023/05/13 07:40:19;;;;;;;15.90;14.73;;;18.80;99.90;;;;;;2613808;39;20609;-67
2023/05/13 07:46:07;;;;;;;18.43;17.10;;;19.50;99.90;;;;;;2611251;54;20391;-68
2023/05/13 07:51:55;;;;;;;16.40;15.20;;;19.60;99.90;;;;;;2611809;54;20366;-66
2023/05/13 07:57:43;;;;;;;17.50;16.40;;;19.50;99.90;;;;;;2614034;39;20961;-67
2023/05/13 08:03:30;;;;;;;16.37;15.30;;;19.90;99.90;;;;;;2610985;54;20134;-66
2023/05/13 08:09:18;;;;;;;16.53;15.30;;;19.50;92.90;;;;;;2611047;39;20607;-67
2023/05/13 08:15:07;;;;;;;17.57;16.13;;;20.10;90.10;;;;;;2612755;54;20170;-67
2023/05/13 08:20:55;;;;;;;15.10;14.00;;;20.20;75.80;;;;;;2612828;54;21007;-66
2023/05/13 08:30:46;;;;;;;17.27;16.20;;;21.20;65.70;;;;;;2611683;54;20395;-68
2023/05/13 08:36:34;;;;;;;17.57;15.97;;;21.30;62.50;;;;;;2612857;54;20407;-68
2023/05/13 08:42:22;;;;;;;18.97;17.67;;;20.80;59.10;;;;;;2613950;54;20134;-68
2023/05/13 08:48:12;;;;;;;17.23;15.83;;;20.90;57.70;;;;;;2613885;54;20494;-67
2023/05/13 08:54:00;;;;;;;18.17;16.67;;;21.70;61.10;;;;;;2613009;54;20418;-67
2023/05/13 08:59:47;;;;;;;16.00;14.77;;;21.60;54.30;;;;;;2613112;54;20394;-66
2023/05/13 09:05:36;;;;;;;17.13;15.70;;;22.00;53.00;;;;;;2611205;39;20511;-68
2023/05/13 09:11:23;;;;;;;17.50;16.00;;;22.80;50.60;;;;;;2613423;54;20563;-67
2023/05/13 09:17:11;;;;;;;15.60;14.70;;;22.40;46.20;;;;;;2612910;54;20394;-67
2023/05/13 09:23:02;;;;;;;15.73;14.57;;;22.90;39.20;;;;;;2612321;54;21002;-67
2023/05/13 09:26:17;;;;;;;14.30;13.47;;;22.90;36.30;;;;;;2613207;54;20391;-67
2023/05/13 09:28:43;;;;;;;14.33;13.33;;;23.40;36.30;;;;;;2612697;54;20428;-66
2023/05/13 09:34:33;;;;;;;13.67;12.73;;;23.90;28.10;;;;;;2612209;54;20641;-65
2023/05/13 09:40:21;;;;;;;13.40;12.47;;;23.50;26.70;;;;;;2606813;54;20953;-67
2023/05/13 09:46:09;;;;;;;13.93;13.03;;;24.00;24.90;;;;;;2609755;39;20738;-67
2023/05/13 09:51:57;;;;;;;13.90;12.83;;;24.10;22.20;;;;;;2610320;54;20390;-67
2023/05/13 09:57:45;;;;;;;15.27;14.13;;;24.40;19.30;;;;;;2611784;54;20154;-68
2023/05/13 10:03:33;;;;;;;13.00;12.20;;;24.30;20.00;;;;;;2612018;54;20551;-68
2023/05/13 10:09:23;;;;;;;14.90;13.80;;;24.20;18.90;;;;;;2611358;54;20351;-68
2023/05/13 10:15:11;;;;;;;14.27;13.37;;;24.30;16.80;;;;;;2609346;54;20488;-67
2023/05/13 10:20:59;;;;;;;13.60;12.80;;;24.30;19.20;;;;;;2606961;54;21045;-67
2023/05/13 10:30:52;;;;;;;13.60;12.80;;;24.10;15.40;;;;;;2607735;54;21016;-67
2023/05/13 10:43:22;;;;;;;14.90;13.60;;;24.60;14.20;;;;;;2608705;54;20953;-66
2023/05/13 10:49:16;;;;;;;13.67;12.60;;;25.10;14.70;;;;;;2606357;54;20516;-67
2023/05/13 11:01:33;;;;;;;14.17;12.97;;;25.10;12.80;;;;;;2605976;54;20414;-67
2023/05/13 11:07:21;;;;;;;14.20;13.40;;;25.20;11.00;;;;;;2608312;54;20367;-67
2023/05/13 11:13:14;;;;;;;13.07;12.47;;;24.50;8.80;;;;;;2611185;54;20127;-67
2023/05/13 11:19:03;;;;;;;14.07;13.07;;;25.10;8.80;;;;;;2611322;54;20413;-67
2023/05/13 11:31:45;;;;;;;15.03;13.80;;;25.50;9.20;;;;;;2612212;54;20395;-66
2023/05/13 11:37:33;;;;;;;14.27;13.17;;;24.60;9.20;;;;;;2609534;54;20551;-67
2023/05/13 11:43:22;;;;;;;13.83;12.93;;;25.50;9.20;;;;;;2611960;54;20367;-68
2023/05/13 11:49:10;;;;;;;14.20;13.30;;;25.90;7.40;;;;;;2612284;54;20606;-67
2023/05/13 11:54:57;;;;;;;14.30;13.13;;;25.70;4.90;;;;;;2614252;54;20122;-67
2023/05/13 12:00:45;;;;;;;13.67;12.77;;;25.00;4.00;;;;;;2613833;54;20254;-67
2023/05/13 12:06:33;;;;;;;14.63;13.73;;;25.10;5.90;;;;;;2613742;54;20142;-67
2023/05/13 12:12:21;;;;;;;15.10;14.20;;;24.60;3.30;;;;;;2612421;54;20372;-66
2023/05/13 12:18:09;;;;;;;15.03;14.03;;;25.10;8.40;;;;;;2612841;54;20407;-66
2023/05/13 12:23:57;;;;;;;14.43;13.73;;;24.40;5.50;;;;;;2612871;54;20771;-67
2023/05/13 12:33:15;;;;;;;15.07;14.10;;;24.90;6.40;;;;;;2609845;54;20406;-69
2023/05/13 12:39:08;;;;;;;14.50;13.17;;;25.20;2.50;;;;;;2610243;54;20403;-69
2023/05/13 12:44:56;;;;;;;13.50;12.70;;;25.20;1.00;;;;;;2612902;54;20395;-69
2023/05/13 12:50:44;;;;;;;14.37;13.77;;;23.70;1.90;;;;;;2611187;54;20927;-68
2023/05/13 12:56:31;;;;;;;14.00;13.00;;;26.00;1.00;;;;;;2611181;54;21003;-69
2023/05/13 13:02:19;;;;;;;12.93;12.27;;;26.50;1.00;;;;;;2613159;46;20144;-68
2023/05/13 13:08:07;;;;;;;14.77;13.40;;;26.50;1.00;;;;;;2612780;54;20170;-68
2023/05/13 13:13:54;;;;;;;13.73;12.93;;;26.40;1.00;;;;;;2611283;54;20134;-68
2023/05/13 13:19:42;;;;;;;14.27;13.37;;;27.20;1.00;;;;;;2611619;54;20134;-68
2023/05/13 13:25:29;;;;;;;13.60;12.70;;;26.50;1.00;;;;;;2612124;54;20134;-68
2023/05/13 13:31:35;;;;;;;14.10;13.30;;;25.10;1.00;;;;;;2611260;54;20146;-68
2023/05/13 13:37:22;;;;;;;15.67;14.70;;;24.40;1.00;;;;;;2612413;54;20653;-67
2023/05/13 13:43:09;;;;;;;14.20;13.50;;;25.10;1.00;;;;;;2612363;54;20143;-68
2023/05/13 13:48:56;;;;;;;15.67;14.87;;;24.10;1.00;;;;;;2610130;54;20126;-69
2023/05/13 13:54:43;;;;;;;15.47;14.40;;;23.80;1.00;;;;;;2610443;54;20131;-68
2023/05/13 14:00:31;;;;;;;15.67;14.77;;;23.80;1.00;;;;;;2611457;54;20138;-68
2023/05/13 14:06:18;;;;;;;15.30;14.20;;;23.40;1.00;;;;;;2610450;54;20166;-68
2023/05/13 14:12:06;;;;;;;15.43;14.63;;;25.00;1.00;;;;;;2613304;54;20359;-68
2023/05/13 14:17:54;;;;;;;15.50;14.60;;;25.00;1.00;;;;;;2613697;54;20679;-69
2023/05/13 14:23:42;;;;;;;15.17;14.23;;;25.40;1.00;;;;;;2614585;46;20382;-68
2023/05/13 14:33:01;;;;;;;16.27;15.27;;;23.80;1.00;;;;;;2614740;54;20379;-76
2023/05/13 14:38:48;;;;;;;15.20;14.40;;;22.70;1.00;;;;;;2614257;54;20376;-77
2023/05/13 14:44:36;;;;;;;16.67;14.80;;;22.40;2.30;;;;;;2613499;54;20815;-76
2023/05/13 14:50:24;;;;;;;15.40;14.70;;;22.20;4.30;;;;;;2612258;39;20622;-75
2023/05/13 14:56:12;;;;;;;6.47;5.70;;;22.00;3.90;;;;;;2612662;54;20134;-76
2023/05/13 15:02:01;;;;;;;7.63;6.93;;;19.50;48.60;;;;;;2612203;54;20126;-76
2023/05/13 15:07:49;;;;;;;14.53;7.60;;;18.60;70.30;;;;;;2609767;54;20379;-75
2023/05/13 15:13:38;;;;;;;7.40;6.90;;;18.50;75.80;;;;;;2611729;54;20123;-75
2023/05/13 15:19:26;;;;;;;7.90;7.40;;;18.50;51.80;;;;;;2612419;54;20419;-76
2023/05/13 15:25:13;;;;;;;8.67;8.13;;;18.70;41.80;;;;;;2609461;54;20154;-75
2023/05/13 15:28:33;;;;;;;9.37;8.60;;;18.90;35.20;;;;;;2611818;54;20428;-76
2023/05/13 15:30:59;;;;;;;9.40;8.70;;;19.10;35.50;;;;;;2612312;51;20162;-74
2023/05/13 15:36:47;;;;;;;9.57;8.97;;;19.50;30.90;;;;;;2610944;54;20133;-75
2023/05/13 15:42:34;;;;;;;9.93;9.33;;;20.20;32.40;;;;;;2612166;54;20661;-76
2023/05/13 15:48:22;;;;;;;9.00;8.30;;;21.00;23.20;;;;;;2612212;54;20151;-76
2023/05/13 15:54:10;;;;;;;10.20;9.60;;;21.60;21.00;;;;;;2610310;39;20426;-76
2023/05/13 15:59:57;;;;;;;10.33;9.83;;;21.70;16.80;;;;;;2612704;54;20143;-76
2023/05/13 16:05:46;;;;;;;11.93;11.03;;;21.90;13.90;;;;;;2612834;54;20754;-76
2023/05/13 16:11:33;;;;;;;10.10;9.60;;;21.10;14.60;;;;;;2613768;54;20390;-76
2023/05/13 16:17:21;;;;;;;10.93;10.30;;;22.40;13.40;;;;;;2612542;54;21585;-76
2023/05/13 16:23:09;;;;;;;49.70;45.60;;;23.60;11.90;;;;;;2613563;39;20251;-76
2023/05/13 16:33:02;;;;;;;13.13;12.20;;;21.50;9.00;;;;;;2611412;54;21447;-77
2023/05/13 16:38:49;;;;;;;13.47;12.57;;;20.40;15.60;;;;;;2612581;39;20764;-76
2023/05/13 16:44:37;;;;;;;13.43;12.63;;;20.00;23.50;;;;;;2610706;54;20126;-77
2023/05/13 16:50:25;;;;;;;16.40;15.40;;;19.80;24.30;;;;;;2610751;54;20121;-76
2023/05/13 16:56:13;;;;;;;14.40;13.40;;;19.70;27.60;;;;;;2613435;54;20137;-76
2023/05/13 17:02:01;;;;;;;17.60;16.30;;;19.50;30.10;;;;;;2610925;54;20146;-76
2023/05/13 17:07:49;;;;;;;14.00;13.07;;;19.30;40.70;;;;;;2613612;54;20940;-68
2023/05/13 17:13:36;;;;;;;15.07;14.13;;;19.30;40.00;;;;;;2611483;31;20577;-67
2023/05/13 17:19:24;;;;;;;14.40;13.50;;;19.30;36.10;;;;;;2612081;47;20747;-69
2023/05/13 17:25:13;;;;;;;14.30;13.30;;;19.30;35.60;;;;;;2613940;54;20175;-68
2023/05/13 17:28:33;;;;;;;13.00;12.30;;;19.20;42.80;;;;;;2612776;54;20388;-69
2023/05/13 17:31:02;;;;;;;15.27;14.17;;;19.20;53.20;;;;;;2612317;54;20958;-67
2023/05/13 17:36:50;;;;;;;15.47;14.43;;;19.40;42.90;;;;;;2612492;54;20489;-67
2023/05/13 17:42:38;;;;;;;14.33;13.33;;;19.30;36.90;;;;;;2611920;54;20138;-68
2023/05/13 17:48:25;;;;;;;14.80;13.70;;;19.20;36.80;;;;;;2614278;54;20142;-68
2023/05/13 17:54:13;;;;;;;15.70;14.80;;;19.10;36.00;;;;;;2609329;39;21966;-68
2023/05/13 18:00:05;;;;;;;13.40;12.60;;;19.10;32.90;;;;;;2611650;54;20162;-68
2023/05/13 18:05:53;;;;;;;13.20;12.50;;;19.10;34.10;;;;;;2614262;46;20390;-68
2023/05/13 18:11:40;;;;;;;15.73;14.17;;;18.80;34.50;;;;;;2614011;54;20131;-68
2023/05/13 18:17:28;;;;;;;13.30;12.53;;;18.80;34.80;;;;;;2610915;54;20158;-69
2023/05/13 18:23:16;;;;;;;14.53;13.47;;;18.70;41.70;;;;;;2611501;54;20278;-69
2023/05/13 18:33:00;;;;;;;15.07;14.17;;;18.10;61.70;;;;;;2614252;54;20398;-69
2023/05/13 18:38:48;;;;;;;14.43;13.60;;;17.60;89.00;;;;;;2613274;54;20444;-69
2023/05/13 18:44:36;;;;;;;17.33;15.73;;;17.30;99.90;;;;;;2613249;54;20183;-69
2023/05/13 18:50:24;;;;;;;14.90;14.00;;;17.10;99.90;;;;;;2614233;46;20149;-69
2023/05/13 18:56:14;;;;;;;15.47;14.13;;;16.70;99.90;;;;;;2614020;54;20135;-70
2023/05/13 19:02:02;;;;;;;15.17;14.17;;;16.20;99.90;;;;;;2612532;54;20397;-69
2023/05/13 19:07:50;;;;;;;18.10;16.60;;;15.90;99.90;;;;;;2612103;54;20150;-69
2023/05/13 19:13:38;;;;;;;15.93;14.57;;;15.80;99.90;;;;;;2611673;54;20663;-68
2023/05/13 19:19:25;;;;;;;14.30;12.97;;;15.80;99.90;;;;;;2610901;54;20146;-69
2023/05/13 19:25:13;;;;;;;14.67;13.57;;;15.50;99.90;;;;;;2611043;54;20270;-68
2023/05/13 19:28:33;;;;;;;15.03;13.97;;;15.30;99.90;;;;;;2610192;54;20966;-69
2023/05/13 19:30:59;;;;;;;14.80;13.70;;;15.30;99.90;;;;;;2611793;31;20702;-69
2023/05/13 19:36:47;;;;;;;16.90;15.53;;;15.00;99.90;;;;;;2611443;54;20126;-69
2023/05/13 19:42:34;;;;;;;16.27;14.77;;;14.60;99.90;;;;;;2611387;54;20135;-69
2023/05/13 19:48:22;;;;;;;16.00;14.70;;;14.50;99.90;;;;;;2612177;54;20159;-69
2023/05/13 19:54:11;;;;;;;15.10;13.80;;;14.30;99.90;;;;;;2613150;54;20154;-69
2023/05/13 19:59:58;;;;;;;16.03;14.70;;;14.10;99.90;;;;;;2613563;54;20431;-69
2023/05/13 20:05:48;;;;;;;16.83;14.70;;;14.00;99.90;;;;;;2612490;54;20174;-69
2023/05/13 20:11:36;;;;;;;15.50;14.17;;;13.90;99.90;;;;;;2613614;54;20367;-69
2023/05/13 20:17:25;;;;;;;16.90;15.50;;;13.60;99.90;;;;;;2613271;54;20165;-69
2023/05/13 20:23:13;;;;;;;14.27;12.97;;;13.50;99.90;;;;;;2613701;54;20375;-69
2023/05/13 20:26:16;;;;;;;15.70;14.27;;;13.40;99.90;;;;;;2612939;39;21067;-69
2023/05/13 20:35:26;;;;;;;14.47;13.27;;;13.20;99.90;;;;;;2612049;54;20996;-67
2023/05/13 20:41:14;;;;;;;18.87;13.80;;;13.00;99.90;;;;;;2612332;54;20158;-69
2023/05/13 20:47:01;;;;;;;15.80;14.40;;;12.90;99.90;;;;;;2614157;54;20118;-69
2023/05/13 20:52:49;;;;;;;15.70;14.07;;;13.10;99.90;;;;;;2612963;54;20122;-69
2023/05/13 20:58:37;;;;;;;20.03;15.03;;;13.00;99.90;;;;;;2613634;54;20126;-70
2023/05/13 21:04:24;;;;;;;17.27;14.60;;;12.90;99.90;;;;;;2613658;54;20675;-69
2023/05/13 21:10:12;;;;;;;16.90;15.37;;;12.80;99.90;;;;;;2610014;54;20130;-69
2023/05/13 21:16:02;;;;;;;18.73;16.93;;;12.80;99.90;;;;;;2612366;54;20206;-69
2023/05/13 21:21:50;;;;;;;19.73;16.13;;;12.60;99.90;;;;;;2612835;54;20468;-70
2023/05/13 21:27:38;;;;;;;18.17;16.37;;;12.60;99.90;;;;;;2613457;54;20146;-68
2023/05/13 21:33:26;;;;;;;19.47;17.67;;;12.50;99.90;;;;;;2613250;54;20493;-69
2023/05/13 21:36:47;;;;;;;17.80;16.30;;;12.40;99.90;;;;;;2610673;54;20945;-69
2023/05/13 21:42:35;;;;;;;19.37;17.60;;;12.30;99.90;;;;;;2612628;54;20407;-69
2023/05/13 21:48:22;;;;;;;17.33;15.70;;;12.40;99.90;;;;;;2612451;54;20131;-69
2023/05/13 21:54:10;;;;;;;20.90;15.87;;;12.30;99.90;;;;;;2613331;54;20130;-69
2023/05/13 21:59:58;;;;;;;20.63;17.00;;;11.90;99.90;;;;;;2613427;54;20158;-68
2023/05/13 22:05:46;;;;;;;21.33;19.23;;;11.80;99.90;;;;;;2613160;54;20247;-70
2023/05/13 22:11:33;;;;;;;19.87;17.70;;;11.60;99.90;;;;;;2615038;31;20634;-69
2023/05/13 22:17:21;;;;;;;19.73;17.67;;;11.60;99.90;;;;;;2612553;54;20207;-69
2023/05/13 22:23:08;;;;;;;20.23;18.07;;;11.60;99.90;;;;;;2613794;54;20118;-69
2023/05/13 22:28:56;;;;;;;18.87;17.03;;;11.30;99.90;;;;;;2613128;54;20134;-73
2023/05/13 22:32:18;;;;;;;19.80;18.00;;;11.30;99.90;;;;;;2611820;47;20435;-70
2023/05/13 22:34:44;;;;;;;19.67;17.77;;;11.20;99.90;;;;;;2614764;54;20416;-68
2023/05/13 22:40:33;;;;;;;21.20;19.00;;;11.10;99.90;;;;;;2614554;54;20142;-70
2023/05/13 22:46:21;;;;;;;21.83;19.70;;;11.10;99.90;;;;;;2614821;54;20371;-70
2023/05/13 22:52:09;;;;;;;23.73;21.27;;;11.00;99.90;;;;;;2614343;54;20134;-70
2023/05/13 22:57:56;;;;;;;22.83;20.43;;;10.90;99.90;;;;;;2614265;54;20126;-70
2023/05/13 23:03:44;;;;;;;21.77;19.77;;;10.90;99.90;;;;;;2614610;54;20770;-70
2023/05/13 23:09:32;;;;;;;23.60;21.10;;;10.60;99.90;;;;;;2614323;39;20500;-70
2023/05/13 23:15:20;;;;;;;22.87;20.33;;;10.60;99.90;;;;;;2614624;46;20856;-69
2023/05/13 23:21:08;;;;;;;23.13;20.70;;;10.70;99.90;;;;;;2614375;54;20118;-69
2023/05/13 23:26:55;;;;;;;22.43;20.13;;;10.60;99.90;;;;;;2613635;54;20256;-70
2023/05/13 23:36:46;;;;;;;23.10;20.70;;;10.40;99.90;;;;;;2614302;54;20355;-70
2023/05/13 23:42:33;;;;;;;27.33;20.80;;;10.40;99.90;;;;;;2613373;54;20364;-70
2023/05/13 23:48:21;;;;;;;27.23;24.30;;;10.50;99.90;;;;;;2614669;39;20549;-69
2023/05/13 23:54:09;;;;;;;25.70;22.90;;;10.60;99.90;;;;;;2613805;54;20138;-70
2023/05/13 23:59:56;;;;;;;24.07;21.07;;;10.40;99.90;;;;;;2613634;54;20141;-69
